createdAt,value
2017-08-27T05:17:32.260Z,860.34
2017-08-27T05:18:32.451Z,860.37
2017-08-27T05:19:32.145Z,860.34
2017-08-27T05:20:32.136Z,860.37
2017-08-27T05:21:32.156Z,860.38
2017-08-27T05:22:32.122Z,860.42
2017-08-27T05:23:32.116Z,860.40
2017-08-27T05:24:32.409Z,860.41
2017-08-27T05:25:32.100Z,860.41
2017-08-27T05:26:32.094Z,860.39
2017-08-27T05:27:32.086Z,860.45
2017-08-27T05:28:32.081Z,860.45
2017-08-27T05:29:32.074Z,860.42
2017-08-27T05:30:32.367Z,860.47
2017-08-27T05:31:32.057Z,860.45
2017-08-27T05:32:32.052Z,860.45
2017-08-27T05:33:32.045Z,860.48
2017-08-27T05:34:32.039Z,860.49
2017-08-27T05:35:32.033Z,860.48
2017-08-27T05:36:32.325Z,860.48
2017-08-27T05:37:32.020Z,860.46
2017-08-27T05:38:32.112Z,860.51
2017-08-27T05:39:32.004Z,860.48
2017-08-27T05:40:32.029Z,860.50
2017-08-27T05:41:31.992Z,860.50
2017-08-27T05:42:32.236Z,860.50
2017-08-27T05:43:31.977Z,860.50
2017-08-27T05:44:31.972Z,860.49
2017-08-27T05:45:31.965Z,860.52
2017-08-27T05:46:31.960Z,860.55
2017-08-27T05:47:31.955Z,860.52
2017-08-27T05:48:32.062Z,860.53
2017-08-27T05:49:31.943Z,860.50
2017-08-27T05:50:31.935Z,860.52
2017-08-27T05:51:31.929Z,860.54
2017-08-27T05:52:32.025Z,860.52
2017-08-27T05:53:31.919Z,860.54
2017-08-27T05:54:32.214Z,860.56
2017-08-27T05:55:31.907Z,860.57
2017-08-27T05:56:31.902Z,860.57
2017-08-27T05:57:31.897Z,860.61
2017-08-27T05:58:31.892Z,860.58
2017-08-27T05:59:31.887Z,860.60
2017-08-27T06:00:32.136Z,860.59
2017-08-27T06:01:31.877Z,860.55
2017-08-27T06:02:31.873Z,860.52
2017-08-27T06:03:31.867Z,860.47
2017-08-27T06:04:31.862Z,860.43
2017-08-27T06:05:31.856Z,860.47
2017-08-27T06:06:31.953Z,860.48
2017-08-27T06:07:31.846Z,860.50
2017-08-27T06:08:31.846Z,860.52
2017-08-27T06:09:31.837Z,860.51
2017-08-27T06:10:31.833Z,860.48
2017-08-27T06:11:31.829Z,860.47
2017-08-27T06:12:32.075Z,860.47
2017-08-27T06:13:31.819Z,860.50
2017-08-27T06:14:31.816Z,860.52
2017-08-27T06:15:31.811Z,860.55
2017-08-27T06:16:31.806Z,860.51
2017-08-27T06:17:31.804Z,860.50
2017-08-27T06:18:31.899Z,860.51
2017-08-27T06:19:31.799Z,860.47
2017-08-27T06:20:31.791Z,860.50
2017-08-27T06:21:31.787Z,860.49
2017-08-27T06:22:31.784Z,860.50
2017-08-27T06:23:31.779Z,860.53
2017-08-27T06:24:31.875Z,860.53
2017-08-27T06:25:31.772Z,860.52
2017-08-27T06:26:31.769Z,860.50
2017-08-27T06:27:31.763Z,860.53
2017-08-27T06:28:31.762Z,860.53
2017-08-27T06:29:31.758Z,860.54
2017-08-27T06:30:32.006Z,860.53
2017-08-27T06:31:31.751Z,860.53
2017-08-27T06:32:31.750Z,860.51
2017-08-27T06:33:31.744Z,860.50
2017-08-27T06:34:31.747Z,860.47
2017-08-27T06:35:31.738Z,860.48
2017-08-27T06:36:31.985Z,860.50
2017-08-27T06:37:31.731Z,860.49
2017-08-27T06:38:31.729Z,860.49
2017-08-27T06:39:31.724Z,860.47
2017-08-27T06:40:31.725Z,860.50
2017-08-27T06:41:31.720Z,860.48
2017-08-27T06:42:31.817Z,860.52
2017-08-27T06:43:31.714Z,860.53
2017-08-27T06:44:31.711Z,860.54
2017-08-27T06:45:31.709Z,860.49
2017-08-27T06:46:31.704Z,860.49
2017-08-27T06:47:31.704Z,860.53
2017-08-27T06:48:31.801Z,860.58
2017-08-27T06:49:31.699Z,860.58
2017-08-27T06:50:31.697Z,860.60
2017-08-27T06:51:31.694Z,860.58
2017-08-27T06:52:31.693Z,860.63
2017-08-27T06:53:31.691Z,860.61
2017-08-27T06:54:31.791Z,860.64
2017-08-27T06:55:31.691Z,860.66
2017-08-27T06:56:31.690Z,860.67
2017-08-27T06:57:31.689Z,860.80
2017-08-27T06:58:31.689Z,860.90
2017-08-27T06:59:31.712Z,861.26
2017-08-27T07:00:31.882Z,861.55
2017-08-27T07:01:31.906Z,861.94
2017-08-27T07:02:31.731Z,862.09
2017-08-27T07:03:31.755Z,862.29
2017-08-27T07:04:31.768Z,862.78
2017-08-27T07:05:31.715Z,863.15
2017-08-27T07:06:32.033Z,863.13
2017-08-27T07:07:31.758Z,863.10
2017-08-27T07:08:31.757Z,862.78
2017-08-27T07:09:31.756Z,863.05
2017-08-27T07:10:31.776Z,863.18
2017-08-27T07:11:31.797Z,863.31
2017-08-27T07:12:31.930Z,863.39
2017-08-27T07:13:31.774Z,863.41
2017-08-27T07:14:31.801Z,863.16
2017-08-27T07:15:31.822Z,863.13
2017-08-27T07:16:31.800Z,863.11
2017-08-27T07:17:31.822Z,863.17
2017-08-27T07:18:31.969Z,863.10
2017-08-27T07:19:31.818Z,863.20
2017-08-27T07:20:31.841Z,863.04
2017-08-27T07:21:31.879Z,862.97
2017-08-27T07:22:31.883Z,863.04
2017-08-27T07:23:31.887Z,863.10
2017-08-27T07:24:32.053Z,863.13
2017-08-27T07:25:32.055Z,863.04
2017-08-27T07:26:31.904Z,863.08
2017-08-27T07:27:31.987Z,863.14
2017-08-27T07:28:31.890Z,863.08
2017-08-27T07:29:31.946Z,863.15
2017-08-27T07:30:31.969Z,863.11
2017-08-27T07:31:32.136Z,863.09
2017-08-27T07:32:31.933Z,863.06
2017-08-27T07:33:31.991Z,862.93
2017-08-27T07:34:32.008Z,862.89
2017-08-27T07:35:32.010Z,862.84
2017-08-27T07:36:32.013Z,862.75
2017-08-27T07:37:32.178Z,862.22
2017-08-27T07:38:32.051Z,861.76
2017-08-27T07:39:32.032Z,861.34
2017-08-27T07:40:32.073Z,861.01
2017-08-27T07:41:32.055Z,860.95
2017-08-27T07:42:32.073Z,861.05
2017-08-27T07:43:32.434Z,861.08
2017-08-27T07:44:32.075Z,860.99
2017-08-27T07:45:32.079Z,860.93
2017-08-27T07:46:32.245Z,860.90
2017-08-27T07:47:32.097Z,860.85
2017-08-27T07:48:32.096Z,860.82
2017-08-27T07:49:32.187Z,860.82
2017-08-27T07:50:32.142Z,860.82
2017-08-27T07:51:32.141Z,860.78
2017-08-27T07:52:32.141Z,860.76
2017-08-27T07:53:32.138Z,860.82
2017-08-27T07:54:32.161Z,860.83
2017-08-27T07:55:32.349Z,860.82
2017-08-27T07:56:32.121Z,860.74
2017-08-27T07:57:32.202Z,860.76
2017-08-27T07:58:32.202Z,860.74
2017-08-27T07:59:32.183Z,860.80
2017-08-27T08:00:32.311Z,860.81
2017-08-27T08:01:32.349Z,860.93
2017-08-27T08:02:32.164Z,860.94
2017-08-27T08:03:32.145Z,860.97
2017-08-27T08:04:32.221Z,861.03
2017-08-27T08:05:32.205Z,861.05
2017-08-27T08:06:32.154Z,861.05
2017-08-27T08:07:32.327Z,861.03
2017-08-27T08:08:32.225Z,861.05
2017-08-27T08:09:32.184Z,861.04
2017-08-27T08:10:32.311Z,861.05
2017-08-27T08:11:32.160Z,861.03
2017-08-27T08:12:32.520Z,861.06
2017-08-27T08:13:32.200Z,861.05
2017-08-27T08:14:32.221Z,861.04
2017-08-27T08:15:32.358Z,861.06
2017-08-27T08:16:32.221Z,861.02
2017-08-27T08:17:32.225Z,861.06
2017-08-27T08:18:32.201Z,861.03
2017-08-27T08:19:32.166Z,861.01
2017-08-27T08:20:32.178Z,860.97
2017-08-27T08:21:32.352Z,861.00
2017-08-27T08:22:32.203Z,860.99
2017-08-27T08:23:32.224Z,861.00
2017-08-27T08:24:32.183Z,861.03
2017-08-27T08:25:32.205Z,861.02
2017-08-27T08:26:32.370Z,861.09
2017-08-27T08:27:32.306Z,861.09
2017-08-27T08:28:32.202Z,861.08
2017-08-27T08:29:32.248Z,861.10
2017-08-27T08:30:32.205Z,861.16
2017-08-27T08:31:32.224Z,861.16
2017-08-27T08:32:32.224Z,861.12
2017-08-27T08:33:32.271Z,861.08
2017-08-27T08:34:32.391Z,861.14
2017-08-27T08:35:32.224Z,861.13
2017-08-27T08:36:32.202Z,861.17
2017-08-27T08:37:32.200Z,861.18
2017-08-27T08:38:32.183Z,861.13
2017-08-27T08:39:32.220Z,861.12
2017-08-27T08:40:32.396Z,861.03
2017-08-27T08:41:32.178Z,861.07
2017-08-27T08:42:32.222Z,861.05
2017-08-27T08:43:32.246Z,861.06
2017-08-27T08:44:32.182Z,860.98
2017-08-27T08:45:32.205Z,860.90
2017-08-27T08:46:32.370Z,860.95
2017-08-27T08:47:32.205Z,860.92
2017-08-27T08:48:32.242Z,860.90
2017-08-27T08:49:32.221Z,860.89
2017-08-27T08:50:32.204Z,860.94
2017-08-27T08:51:32.222Z,861.07
2017-08-27T08:52:32.289Z,861.05
2017-08-27T08:53:32.204Z,861.09
2017-08-27T08:54:32.177Z,861.02
2017-08-27T08:55:32.177Z,860.99
2017-08-27T08:56:32.178Z,861.05
2017-08-27T08:57:32.179Z,860.95
2017-08-27T08:58:32.277Z,860.97
2017-08-27T08:59:32.176Z,860.98
2017-08-27T09:00:32.176Z,860.99
2017-08-27T09:01:32.174Z,860.92
2017-08-27T09:02:32.175Z,860.93
2017-08-27T09:03:32.176Z,860.93
2017-08-27T09:04:32.275Z,860.89
2017-08-27T09:05:32.175Z,860.87
2017-08-27T09:06:32.175Z,860.86
2017-08-27T09:07:32.173Z,860.83
2017-08-27T09:08:32.173Z,860.87
2017-08-27T09:09:32.174Z,860.82
2017-08-27T09:10:32.273Z,860.76
2017-08-27T09:11:32.171Z,860.73
2017-08-27T09:12:32.171Z,860.75
2017-08-27T09:13:32.171Z,860.70
2017-08-27T09:14:32.170Z,860.74
2017-08-27T09:15:32.179Z,860.72
2017-08-27T09:16:32.269Z,860.81
2017-08-27T09:17:32.167Z,860.85
2017-08-27T09:18:32.169Z,860.83
2017-08-27T09:19:32.166Z,860.81
2017-08-27T09:20:32.167Z,860.78
2017-08-27T09:21:32.166Z,860.78
2017-08-27T09:22:32.267Z,860.78
2017-08-27T09:23:32.163Z,860.76
2017-08-27T09:24:32.369Z,860.74
2017-08-27T09:25:32.163Z,860.75
2017-08-27T09:26:32.206Z,860.77
2017-08-27T09:27:32.162Z,860.74
2017-08-27T09:28:32.261Z,860.74
2017-08-27T09:29:32.182Z,860.77
2017-08-27T09:30:32.160Z,860.84
2017-08-27T09:31:32.159Z,860.88
2017-08-27T09:32:32.158Z,860.87
2017-08-27T09:33:32.158Z,860.95
2017-08-27T09:34:32.309Z,860.94
2017-08-27T09:35:32.156Z,860.97
2017-08-27T09:36:32.155Z,860.99
2017-08-27T09:37:32.156Z,860.94
2017-08-27T09:38:32.156Z,860.93
2017-08-27T09:39:32.155Z,860.87
2017-08-27T09:40:32.254Z,860.90
2017-08-27T09:41:32.155Z,860.98
2017-08-27T09:42:32.154Z,860.95
2017-08-27T09:43:32.154Z,860.89
2017-08-27T09:44:32.154Z,860.87
2017-08-27T09:45:32.254Z,860.88
2017-08-27T09:46:32.255Z,860.93
2017-08-27T09:47:32.154Z,860.86
2017-08-27T09:48:32.154Z,860.85
2017-08-27T09:49:32.155Z,860.83
2017-08-27T09:50:32.153Z,860.81
2017-08-27T09:51:32.153Z,860.79
2017-08-27T09:52:32.395Z,860.83
2017-08-27T09:53:32.154Z,860.82
2017-08-27T09:54:32.155Z,860.89
2017-08-27T09:55:32.154Z,860.86
2017-08-27T09:56:32.156Z,860.89
2017-08-27T09:57:32.154Z,860.85
2017-08-27T09:58:32.261Z,860.86
2017-08-27T09:59:32.154Z,860.82
2017-08-27T10:00:32.156Z,860.82
2017-08-27T10:01:32.155Z,860.87
2017-08-27T10:02:32.155Z,860.84
2017-08-27T10:03:32.157Z,860.90
2017-08-27T10:04:32.255Z,860.93
2017-08-27T10:05:32.256Z,860.91
2017-08-27T10:06:32.160Z,860.93
2017-08-27T10:07:32.154Z,860.91
2017-08-27T10:08:32.155Z,860.82
2017-08-27T10:09:32.156Z,860.81
2017-08-27T10:10:32.156Z,860.81
2017-08-27T10:11:32.254Z,860.79
2017-08-27T10:12:32.155Z,860.83
2017-08-27T10:13:32.256Z,860.87
2017-08-27T10:14:32.155Z,860.93
2017-08-27T10:15:32.153Z,860.90
2017-08-27T10:16:32.156Z,860.91
2017-08-27T10:17:32.257Z,860.89
2017-08-27T10:18:32.156Z,860.92
2017-08-27T10:19:32.155Z,860.85
2017-08-27T10:20:32.158Z,860.84
2017-08-27T10:21:32.156Z,860.82
2017-08-27T10:22:32.157Z,860.85
2017-08-27T10:23:32.255Z,860.80
2017-08-27T10:24:32.156Z,860.87
2017-08-27T10:25:32.159Z,860.84
2017-08-27T10:26:32.198Z,860.84
2017-08-27T10:27:32.155Z,860.83
2017-08-27T10:28:32.157Z,860.87
2017-08-27T10:29:32.262Z,860.83
2017-08-27T10:30:32.159Z,860.84
2017-08-27T10:31:32.228Z,860.81
2017-08-27T10:32:32.156Z,860.78
2017-08-27T10:33:32.156Z,860.79
2017-08-27T10:34:32.156Z,860.70
2017-08-27T10:35:32.256Z,860.66
2017-08-27T10:36:32.157Z,860.69
2017-08-27T10:37:32.157Z,860.64
2017-08-27T10:38:32.157Z,860.68
2017-08-27T10:39:32.158Z,860.64
2017-08-27T10:40:32.158Z,860.68
2017-08-27T10:41:32.260Z,860.68
2017-08-27T10:42:32.161Z,860.68
2017-08-27T10:43:32.160Z,860.63
2017-08-27T10:44:32.163Z,860.61
2017-08-27T10:45:32.164Z,860.54
2017-08-27T10:46:32.174Z,860.55
2017-08-27T10:47:32.266Z,860.57
2017-08-27T10:48:32.221Z,860.59
2017-08-27T10:49:32.172Z,860.62
2017-08-27T10:50:32.268Z,860.57
2017-08-27T10:51:32.180Z,860.59
2017-08-27T10:52:32.168Z,860.63
2017-08-27T10:53:32.169Z,860.60
2017-08-27T10:54:32.270Z,860.61
2017-08-27T10:55:32.171Z,860.56
2017-08-27T10:56:32.172Z,860.60
2017-08-27T10:57:32.174Z,860.54
2017-08-27T10:58:32.178Z,860.54
2017-08-27T10:59:32.174Z,860.61
2017-08-27T11:00:32.276Z,860.58
2017-08-27T11:01:32.176Z,860.55
2017-08-27T11:02:32.178Z,860.60
2017-08-27T11:03:32.177Z,860.59
2017-08-27T11:04:32.179Z,860.54
2017-08-27T11:05:32.181Z,860.56
2017-08-27T11:06:32.284Z,860.60
2017-08-27T11:07:32.182Z,860.61
2017-08-27T11:08:32.183Z,860.59
2017-08-27T11:09:32.185Z,860.62
2017-08-27T11:10:32.187Z,860.63
2017-08-27T11:11:32.190Z,860.64
2017-08-27T11:12:32.289Z,860.61
2017-08-27T11:13:32.294Z,860.59
2017-08-27T11:14:32.192Z,860.55
2017-08-27T11:15:32.193Z,860.52
2017-08-27T11:16:32.203Z,860.47
2017-08-27T11:17:32.196Z,860.49
2017-08-27T11:18:32.298Z,860.44
2017-08-27T11:19:32.200Z,860.44
2017-08-27T11:20:32.201Z,860.42
2017-08-27T11:21:32.203Z,860.43
2017-08-27T11:22:32.206Z,860.46
2017-08-27T11:23:32.206Z,860.47
2017-08-27T11:24:32.309Z,860.45
2017-08-27T11:25:32.211Z,860.42
2017-08-27T11:26:32.212Z,860.39
2017-08-27T11:27:32.214Z,860.32
2017-08-27T11:28:32.215Z,860.35
2017-08-27T11:29:32.217Z,860.29
2017-08-27T11:30:32.326Z,860.32
2017-08-27T11:31:32.220Z,860.27
2017-08-27T11:32:32.221Z,860.29
2017-08-27T11:33:32.324Z,860.25
2017-08-27T11:34:32.227Z,860.30
2017-08-27T11:35:32.227Z,860.29
2017-08-27T11:36:32.330Z,860.34
2017-08-27T11:37:32.232Z,860.33
2017-08-27T11:38:32.233Z,860.43
2017-08-27T11:39:32.267Z,860.43
2017-08-27T11:40:32.235Z,860.44
2017-08-27T11:41:32.238Z,860.48
2017-08-27T11:42:32.341Z,860.49
2017-08-27T11:43:32.240Z,860.47
2017-08-27T11:44:32.242Z,860.44
2017-08-27T11:45:32.243Z,860.41
2017-08-27T11:46:32.247Z,860.39
2017-08-27T11:47:32.246Z,860.41
2017-08-27T11:48:32.349Z,860.43
2017-08-27T11:49:32.250Z,860.47
2017-08-27T11:50:32.249Z,860.46
2017-08-27T11:51:32.250Z,860.47
2017-08-27T11:52:32.251Z,860.44
2017-08-27T11:53:32.254Z,860.44
2017-08-27T11:54:32.558Z,860.44
2017-08-27T11:55:32.257Z,860.45
2017-08-27T11:56:32.254Z,860.42
2017-08-27T11:57:32.257Z,860.44
2017-08-27T11:58:32.257Z,860.46
2017-08-27T11:59:32.257Z,860.43
2017-08-27T12:00:32.408Z,860.43
2017-08-27T12:01:32.263Z,860.40
2017-08-27T12:02:32.262Z,860.41
2017-08-27T12:03:32.262Z,860.39
2017-08-27T12:04:32.268Z,860.42
2017-08-27T12:05:32.266Z,860.38
2017-08-27T12:06:32.315Z,860.36
2017-08-27T12:07:32.271Z,860.32
2017-08-27T12:08:32.266Z,860.32
2017-08-27T12:09:32.267Z,860.31
2017-08-27T12:10:32.270Z,860.31
2017-08-27T12:11:32.269Z,860.29
2017-08-27T12:12:32.319Z,860.29
2017-08-27T12:13:32.271Z,860.29
2017-08-27T12:14:32.278Z,860.32
2017-08-27T12:15:32.274Z,860.33
2017-08-27T12:16:32.273Z,860.32
2017-08-27T12:17:32.276Z,860.29
2017-08-27T12:18:32.327Z,860.27
2017-08-27T12:19:32.278Z,860.23
2017-08-27T12:20:32.278Z,860.20
2017-08-27T12:21:32.285Z,860.19
2017-08-27T12:22:32.280Z,860.23
2017-08-27T12:23:32.282Z,860.23
2017-08-27T12:24:32.333Z,860.24
2017-08-27T12:25:32.286Z,860.23
2017-08-27T12:26:32.288Z,860.21
2017-08-27T12:27:32.287Z,860.17
2017-08-27T12:28:32.287Z,860.19
2017-08-27T12:29:32.289Z,860.14
2017-08-27T12:30:32.340Z,860.17
2017-08-27T12:31:32.298Z,860.17
2017-08-27T12:32:32.292Z,860.15
2017-08-27T12:33:32.291Z,860.16
2017-08-27T12:34:32.293Z,860.18
2017-08-27T12:35:32.293Z,860.20
2017-08-27T12:36:32.344Z,860.18
2017-08-27T12:37:32.296Z,860.16
2017-08-27T12:38:32.297Z,860.16
2017-08-27T12:39:32.297Z,860.16
2017-08-27T12:40:32.301Z,860.14
2017-08-27T12:41:32.350Z,860.15
2017-08-27T12:42:32.301Z,860.12
2017-08-27T12:43:32.301Z,860.12
2017-08-27T12:44:32.309Z,860.04
2017-08-27T12:45:32.306Z,860.03
2017-08-27T12:46:32.405Z,860.00
2017-08-27T12:47:32.360Z,859.97
2017-08-27T12:48:32.314Z,859.92
2017-08-27T12:49:32.314Z,859.89
2017-08-27T12:50:32.310Z,859.89
2017-08-27T12:51:32.311Z,859.87
2017-08-27T12:52:32.317Z,859.82
2017-08-27T12:53:32.316Z,859.78
2017-08-27T12:54:32.314Z,859.83
2017-08-27T12:55:32.315Z,859.77
2017-08-27T12:56:32.322Z,859.80
2017-08-27T12:57:32.319Z,859.80
2017-08-27T12:58:32.484Z,859.83
2017-08-27T12:59:32.423Z,859.82
2017-08-27T13:00:32.322Z,859.90
2017-08-27T13:01:32.439Z,859.89
2017-08-27T13:02:32.351Z,859.93
2017-08-27T13:03:32.375Z,859.92
2017-08-27T13:04:32.481Z,859.91
2017-08-27T13:05:32.372Z,859.95
2017-08-27T13:06:32.503Z,859.94
2017-08-27T13:07:32.351Z,859.93
2017-08-27T13:08:32.373Z,859.92
2017-08-27T13:09:32.354Z,859.90
2017-08-27T13:10:32.378Z,859.90
2017-08-27T13:11:32.544Z,859.92
2017-08-27T13:12:32.374Z,859.88
2017-08-27T13:13:32.371Z,859.82
2017-08-27T13:14:32.394Z,859.82
2017-08-27T13:15:32.371Z,859.81
2017-08-27T13:16:32.376Z,859.77
2017-08-27T13:17:32.458Z,859.81
2017-08-27T13:18:32.357Z,859.80
2017-08-27T13:19:32.340Z,859.80
2017-08-27T13:20:32.340Z,859.83
2017-08-27T13:21:32.344Z,859.85
2017-08-27T13:22:32.396Z,859.89
2017-08-27T13:23:32.547Z,859.89
2017-08-27T13:24:32.344Z,859.91
2017-08-27T13:25:32.378Z,859.92
2017-08-27T13:26:32.397Z,859.96
2017-08-27T13:27:32.399Z,859.97
2017-08-27T13:28:32.398Z,859.95
2017-08-27T13:29:32.522Z,859.97
2017-08-27T13:30:32.395Z,859.98
2017-08-27T13:31:32.395Z,860.00
2017-08-27T13:32:32.393Z,860.03
2017-08-27T13:33:32.413Z,860.04
2017-08-27T13:34:32.379Z,860.04
2017-08-27T13:35:32.460Z,860.06
2017-08-27T13:36:32.397Z,860.08
2017-08-27T13:37:32.374Z,860.13
2017-08-27T13:38:32.392Z,860.13
2017-08-27T13:39:32.414Z,860.14
2017-08-27T13:40:32.374Z,860.14
2017-08-27T13:41:32.437Z,860.14
2017-08-27T13:42:32.396Z,860.16
2017-08-27T13:43:32.396Z,860.16
2017-08-27T13:44:32.392Z,860.13
2017-08-27T13:45:32.393Z,860.18
2017-08-27T13:46:32.378Z,860.18
2017-08-27T13:47:32.421Z,860.21
2017-08-27T13:48:32.395Z,860.26
2017-08-27T13:49:32.376Z,860.27
2017-08-27T13:50:32.374Z,860.29
2017-08-27T13:51:32.379Z,860.28
2017-08-27T13:52:32.400Z,860.30
2017-08-27T13:53:32.571Z,860.33
2017-08-27T13:54:32.398Z,860.36
2017-08-27T13:55:32.354Z,860.37
2017-08-27T13:56:32.355Z,860.45
2017-08-27T13:57:32.355Z,860.54
2017-08-27T13:58:32.354Z,860.56
2017-08-27T13:59:32.455Z,860.60
2017-08-27T14:00:32.357Z,860.63
2017-08-27T14:01:32.352Z,860.60
2017-08-27T14:02:32.355Z,860.55
2017-08-27T14:03:32.358Z,860.59
2017-08-27T14:04:32.355Z,860.58
2017-08-27T14:05:32.453Z,860.60
2017-08-27T14:06:32.352Z,860.53
2017-08-27T14:07:32.352Z,860.58
2017-08-27T14:08:32.485Z,860.56
2017-08-27T14:09:32.352Z,860.49
2017-08-27T14:10:32.350Z,860.59
2017-08-27T14:11:32.449Z,860.67
2017-08-27T14:12:32.347Z,860.66
2017-08-27T14:13:32.347Z,860.74
2017-08-27T14:14:32.347Z,860.74
2017-08-27T14:15:32.349Z,860.75
2017-08-27T14:16:32.344Z,860.79
2017-08-27T14:17:32.394Z,860.73
2017-08-27T14:18:32.343Z,860.74
2017-08-27T14:19:32.343Z,860.74
2017-08-27T14:20:32.341Z,860.74
2017-08-27T14:21:32.342Z,860.73
2017-08-27T14:22:32.342Z,860.77
2017-08-27T14:23:32.388Z,860.77
2017-08-27T14:24:32.336Z,860.77
2017-08-27T14:25:32.343Z,860.77
2017-08-27T14:26:32.337Z,860.77
2017-08-27T14:27:32.338Z,860.81
2017-08-27T14:28:32.434Z,860.76
2017-08-27T14:29:32.385Z,860.78
2017-08-27T14:30:32.420Z,860.82
2017-08-27T14:31:32.332Z,860.76
2017-08-27T14:32:32.330Z,860.75
2017-08-27T14:33:32.329Z,860.75
2017-08-27T14:34:32.331Z,860.74
2017-08-27T14:35:32.430Z,860.72
2017-08-27T14:36:32.325Z,860.69
2017-08-27T14:37:32.325Z,860.69
2017-08-27T14:38:32.481Z,860.71
2017-08-27T14:39:32.321Z,860.65
2017-08-27T14:40:32.322Z,860.68
2017-08-27T14:41:32.375Z,860.66
2017-08-27T14:42:32.327Z,860.69
2017-08-27T14:43:33.556Z,860.68
2017-08-27T14:44:32.316Z,860.65
2017-08-27T14:45:32.317Z,860.63
2017-08-27T14:46:32.316Z,860.62
2017-08-27T14:47:32.413Z,860.62
2017-08-27T14:48:32.313Z,860.62
2017-08-27T14:49:32.312Z,860.55
2017-08-27T14:50:32.311Z,860.54
2017-08-27T14:51:32.318Z,860.54
2017-08-27T14:52:32.308Z,860.51
2017-08-27T14:53:32.408Z,860.53
2017-08-27T14:54:32.310Z,860.53
2017-08-27T14:55:32.305Z,860.53
2017-08-27T14:56:32.304Z,860.47
2017-08-27T14:57:32.306Z,860.50
2017-08-27T14:58:32.303Z,860.48
2017-08-27T14:59:32.351Z,860.53
2017-08-27T15:00:32.300Z,860.50
2017-08-27T15:01:32.301Z,860.48
2017-08-27T15:02:32.549Z,860.49
2017-08-27T15:03:32.297Z,860.47
2017-08-27T15:04:32.296Z,860.45
2017-08-27T15:05:32.395Z,860.44
2017-08-27T15:06:32.295Z,860.44
2017-08-27T15:07:32.441Z,860.41
2017-08-27T15:08:32.292Z,860.46
2017-08-27T15:09:32.293Z,860.42
2017-08-27T15:10:32.292Z,860.44
2017-08-27T15:11:32.388Z,860.42
2017-08-27T15:12:32.288Z,860.42
2017-08-27T15:13:32.355Z,860.38
2017-08-27T15:14:32.287Z,860.39
2017-08-27T15:15:32.283Z,860.38
2017-08-27T15:16:32.286Z,860.42
2017-08-27T15:17:32.335Z,860.39
2017-08-27T15:18:32.282Z,860.42
2017-08-27T15:19:32.282Z,860.41
2017-08-27T15:20:32.280Z,860.40
2017-08-27T15:21:32.278Z,860.44
2017-08-27T15:22:32.380Z,860.41
2017-08-27T15:23:32.325Z,860.42
2017-08-27T15:24:32.309Z,860.41
2017-08-27T15:25:32.274Z,860.47
2017-08-27T15:26:32.274Z,860.43
2017-08-27T15:27:32.272Z,860.42
2017-08-27T15:28:32.271Z,860.46
2017-08-27T15:29:32.320Z,860.42
2017-08-27T15:30:32.270Z,860.39
2017-08-27T15:31:32.269Z,860.42
2017-08-27T15:32:32.270Z,860.43
2017-08-27T15:33:32.268Z,860.43
2017-08-27T15:34:32.267Z,860.46
2017-08-27T15:35:32.266Z,860.42
2017-08-27T15:36:32.364Z,860.45
2017-08-27T15:37:32.263Z,860.46
2017-08-27T15:38:32.263Z,860.41
2017-08-27T15:39:32.262Z,860.40
2017-08-27T15:40:32.260Z,860.39
2017-08-27T15:41:32.260Z,860.39
2017-08-27T15:42:32.359Z,860.40
2017-08-27T15:43:32.259Z,860.38
2017-08-27T15:44:32.256Z,860.39
2017-08-27T15:45:32.258Z,860.38
2017-08-27T15:46:32.256Z,860.36
2017-08-27T15:47:32.255Z,860.31
2017-08-27T15:48:32.303Z,860.33
2017-08-27T15:49:32.252Z,860.32
2017-08-27T15:50:32.254Z,860.31
2017-08-27T15:51:32.251Z,860.27
2017-08-27T15:52:32.250Z,860.26
2017-08-27T15:53:32.249Z,860.28
2017-08-27T15:54:32.298Z,860.25
2017-08-27T15:55:32.247Z,860.24
2017-08-27T15:56:32.248Z,860.24
2017-08-27T15:57:32.246Z,860.22
2017-08-27T15:58:32.246Z,860.21
2017-08-27T15:59:32.243Z,860.19
2017-08-27T16:00:32.345Z,860.16
2017-08-27T16:01:32.295Z,860.13
2017-08-27T16:02:32.240Z,860.16
2017-08-27T16:03:32.268Z,860.20
2017-08-27T16:04:32.240Z,860.21
2017-08-27T16:05:32.238Z,860.22
2017-08-27T16:06:32.238Z,860.19
2017-08-27T16:07:32.336Z,860.20
2017-08-27T16:08:32.236Z,860.16
2017-08-27T16:09:32.237Z,860.15
2017-08-27T16:10:32.235Z,860.16
2017-08-27T16:11:32.233Z,860.13
2017-08-27T16:12:32.234Z,860.11
2017-08-27T16:13:32.483Z,860.11
2017-08-27T16:14:32.232Z,860.10
2017-08-27T16:15:32.230Z,860.06
2017-08-27T16:16:32.229Z,860.06
2017-08-27T16:17:32.230Z,860.08
2017-08-27T16:18:32.228Z,860.05
2017-08-27T16:19:32.326Z,860.04
2017-08-27T16:20:32.226Z,860.07
2017-08-27T16:21:32.224Z,860.04
2017-08-27T16:22:32.224Z,860.03
2017-08-27T16:23:32.222Z,860.07
2017-08-27T16:24:32.222Z,860.03
2017-08-27T16:25:32.321Z,860.02
2017-08-27T16:26:32.221Z,860.03
2017-08-27T16:27:32.217Z,859.99
2017-08-27T16:28:32.217Z,859.97
2017-08-27T16:29:32.218Z,859.96
2017-08-27T16:30:32.216Z,859.94
2017-08-27T16:31:32.317Z,859.91
2017-08-27T16:32:32.217Z,859.94
2017-08-27T16:33:32.212Z,859.92
2017-08-27T16:34:32.212Z,859.95
2017-08-27T16:35:32.210Z,859.91
2017-08-27T16:36:32.211Z,859.87
2017-08-27T16:37:32.308Z,859.91
2017-08-27T16:38:32.207Z,859.92
2017-08-27T16:39:32.207Z,859.91
2017-08-27T16:40:32.205Z,859.92
2017-08-27T16:41:32.203Z,859.92
2017-08-27T16:42:32.202Z,859.90
2017-08-27T16:43:32.300Z,859.90
2017-08-27T16:44:32.199Z,859.96
2017-08-27T16:45:32.198Z,859.92
2017-08-27T16:46:32.197Z,859.96
2017-08-27T16:47:32.195Z,859.95
2017-08-27T16:48:32.193Z,859.94
2017-08-27T16:49:32.292Z,859.90
2017-08-27T16:50:32.191Z,859.88
2017-08-27T16:51:32.188Z,859.87
2017-08-27T16:52:32.188Z,859.89
2017-08-27T16:53:32.186Z,859.87
2017-08-27T16:54:32.186Z,859.87
2017-08-27T16:55:32.284Z,859.88
2017-08-27T16:56:32.181Z,859.88
2017-08-27T16:57:32.180Z,859.88
2017-08-27T16:58:32.178Z,859.90
2017-08-27T16:59:32.177Z,859.89
2017-08-27T17:00:32.173Z,859.91
2017-08-27T17:01:32.473Z,859.91
2017-08-27T17:02:32.171Z,859.92
2017-08-27T17:03:32.168Z,859.89
2017-08-27T17:04:32.167Z,859.86
2017-08-27T17:05:32.167Z,859.89
2017-08-27T17:06:32.164Z,859.89
2017-08-27T17:07:32.462Z,859.87
2017-08-27T17:08:32.160Z,859.88
2017-08-27T17:09:32.159Z,859.87
2017-08-27T17:10:32.157Z,859.86
2017-08-27T17:11:32.154Z,859.89
2017-08-27T17:12:32.151Z,859.89
2017-08-27T17:13:32.401Z,859.90
2017-08-27T17:14:32.149Z,859.88
2017-08-27T17:15:32.145Z,859.91
2017-08-27T17:16:32.143Z,859.90
2017-08-27T17:17:32.140Z,859.89
2017-08-27T17:18:32.140Z,859.90
2017-08-27T17:19:32.237Z,859.91
2017-08-27T17:20:32.138Z,859.90
2017-08-27T17:21:32.133Z,859.90
2017-08-27T17:22:32.132Z,859.91
2017-08-27T17:23:32.128Z,859.88
2017-08-27T17:24:32.126Z,859.88
2017-08-27T17:25:32.225Z,859.89
2017-08-27T17:26:32.123Z,859.85
2017-08-27T17:27:32.119Z,859.84
2017-08-27T17:28:32.117Z,859.83
2017-08-27T17:29:32.116Z,859.84
2017-08-27T17:30:32.112Z,859.86
2017-08-27T17:31:32.210Z,859.87
2017-08-27T17:32:32.108Z,859.82
2017-08-27T17:33:32.105Z,859.85
2017-08-27T17:34:32.104Z,859.84
2017-08-27T17:35:32.099Z,859.83
2017-08-27T17:36:32.099Z,859.84
2017-08-27T17:37:32.195Z,859.88
2017-08-27T17:38:32.094Z,859.87
2017-08-27T17:39:32.090Z,859.87
2017-08-27T17:40:32.088Z,859.86
2017-08-27T17:41:32.086Z,859.85
2017-08-27T17:42:32.084Z,859.87
2017-08-27T17:43:32.181Z,859.86
2017-08-27T17:44:32.079Z,859.83
2017-08-27T17:45:32.076Z,859.83